createdAt,value
2023-05-16T00:00:21.392Z,94265.56
2023-05-16T00:02:48.762Z,94260.47
2023-05-16T00:05:15.875Z,94264.56
2023-05-16T00:07:44.852Z,94256.84
2023-05-16T00:10:12.492Z,94261.28
2023-05-16T00:12:40.481Z,94251.94
2023-05-16T00:15:12.838Z,94255.06
2023-05-16T00:17:40.724Z,94252.25
2023-05-16T00:20:09.073Z,94250.28
2023-05-16T00:22:36.131Z,94247.38
2023-05-16T00:25:03.700Z,94260.78
2023-05-16T00:27:30.710Z,94253.41
2023-05-16T00:29:57.503Z,94244.75
2023-05-16T00:32:24.407Z,94249.16
2023-05-16T00:34:51.309Z,94248.69
2023-05-16T00:37:18.158Z,94241.94
2023-05-16T00:39:44.981Z,94247.38
2023-05-16T00:42:11.820Z,94239.16
2023-05-16T00:44:39.487Z,94243.44
2023-05-16T00:47:06.688Z,94235.59
2023-05-16T00:49:33.732Z,94234.94
2023-05-16T00:52:01.248Z,94236.38
2023-05-16T00:54:29.627Z,94237.22
2023-05-16T00:56:57.762Z,94232.47
2023-05-16T00:59:25.606Z,94221.00
2023-05-16T01:01:53.403Z,94231.31
2023-05-16T01:04:21.072Z,94227.88
2023-05-16T01:06:47.950Z,94231.97
2023-05-16T01:09:15.081Z,94226.06
2023-05-16T01:12:04.834Z,94222.94
2023-05-16T01:15:12.928Z,94232.97
2023-05-16T01:18:08.971Z,94231.00
2023-05-16T01:21:01.306Z,94222.78
2023-05-16T01:24:03.349Z,94232.31
2023-05-16T01:26:30.803Z,94234.09
2023-05-16T01:28:58.048Z,94222.94
2023-05-16T01:31:24.987Z,94230.34
2023-05-16T01:33:52.113Z,94223.13
2023-05-16T01:36:43.300Z,94228.38
2023-05-16T01:39:38.978Z,94225.09
2023-05-16T01:42:08.507Z,94234.94
2023-05-16T01:44:46.496Z,94233.63
2023-05-16T01:47:15.382Z,94223.44
2023-05-16T01:50:20.496Z,94223.28
2023-05-16T01:52:57.423Z,94223.28
2023-05-16T01:55:46.836Z,94224.09
2023-05-16T01:58:21.798Z,94236.22
2023-05-16T02:00:48.777Z,94232.63
2023-05-16T02:03:15.909Z,94233.94
2023-05-16T02:05:43.230Z,94229.53
2023-05-16T02:08:10.214Z,94233.44
2023-05-16T02:10:37.055Z,94239.19
2023-05-16T02:13:03.968Z,94235.25
2023-05-16T02:15:30.775Z,94242.94
2023-05-16T02:17:58.825Z,94235.91
2023-05-16T02:20:26.030Z,94245.41
2023-05-16T02:22:52.916Z,94244.09
2023-05-16T02:25:19.792Z,94245.75
2023-05-16T02:27:46.631Z,94233.94
2023-05-16T02:30:13.965Z,94230.66
2023-05-16T02:32:41.395Z,94232.94
2023-05-16T02:35:08.529Z,94229.66
2023-05-16T02:37:35.606Z,94227.84
2023-05-16T02:40:05.820Z,94226.25
2023-05-16T02:42:32.846Z,94225.75
2023-05-16T02:44:59.820Z,94224.78
2023-05-16T02:47:26.922Z,94225.94
2023-05-16T02:49:53.858Z,94218.22
2023-05-16T02:52:20.696Z,94223.47
2023-05-16T02:54:59.886Z,94223.97
2023-05-16T02:57:34.704Z,94234.25
2023-05-16T03:00:01.630Z,94221.34
2023-05-16T03:02:28.607Z,94221.16
2023-05-16T03:04:55.639Z,94220.19
2023-05-16T03:07:22.459Z,94215.94
2023-05-16T03:09:49.281Z,94216.44
2023-05-16T03:12:16.083Z,94212.00
2023-05-16T03:14:42.933Z,94215.94
2023-05-16T03:17:09.771Z,94219.69
2023-05-16T03:19:36.612Z,94212.81
2023-05-16T03:22:04.227Z,94199.56
2023-05-16T03:24:31.445Z,94218.56
2023-05-16T03:27:00.104Z,94218.22
2023-05-16T03:29:27.318Z,94213.78
2023-05-16T03:31:54.664Z,94216.25
2023-05-16T03:34:21.600Z,94207.59
2023-05-16T03:36:51.744Z,94201.84
2023-05-16T03:39:18.659Z,94202.50
2023-05-16T03:41:45.480Z,94204.16
2023-05-16T03:44:12.336Z,94192.19
2023-05-16T03:46:39.262Z,94202.84
2023-05-16T03:49:06.528Z,94210.00
2023-05-16T03:51:33.540Z,94201.69
2023-05-16T03:54:00.610Z,94211.16
2023-05-16T03:56:27.572Z,94207.44
2023-05-16T03:58:54.619Z,94205.94
2023-05-16T04:01:21.532Z,94213.78
2023-05-16T04:03:48.393Z,94207.44
2023-05-16T04:06:15.214Z,94214.94
2023-05-16T04:08:45.137Z,94218.22
2023-05-16T04:11:12.350Z,94221.81
2023-05-16T04:13:39.313Z,94216.91
2023-05-16T04:16:07.483Z,94212.00
2023-05-16T04:18:34.460Z,94221.16
2023-05-16T04:21:01.421Z,94218.88
2023-05-16T04:23:28.396Z,94222.78
2023-05-16T04:25:57.113Z,94216.09
2023-05-16T04:28:23.971Z,94225.72
2023-05-16T04:30:51.514Z,94219.84
2023-05-16T04:33:18.965Z,94222.78
2023-05-16T04:35:45.980Z,94225.38
2023-05-16T04:38:12.806Z,94221.91
2023-05-16T04:40:41.937Z,94214.03
2023-05-16T04:43:08.907Z,94214.19
2023-05-16T04:45:37.608Z,94210.25
2023-05-16T04:48:05.298Z,94218.03
2023-05-16T04:50:32.259Z,94219.28
2023-05-16T04:52:59.226Z,94223.81
2023-05-16T04:55:26.317Z,94211.81
2023-05-16T04:57:53.722Z,94211.84
2023-05-16T05:00:21.116Z,94221.34
2023-05-16T05:02:48.048Z,94213.88
2023-05-16T05:05:15.057Z,94223.47
2023-05-16T05:07:41.993Z,94222.66
2023-05-16T05:10:09.571Z,94219.97
2023-05-16T05:12:37.122Z,94230.63
2023-05-16T05:15:05.702Z,94224.69
2023-05-16T05:17:33.368Z,94216.78
2023-05-16T05:20:02.661Z,94222.66
2023-05-16T05:22:30.183Z,94224.56
2023-05-16T05:24:57.009Z,94229.06
2023-05-16T05:27:23.834Z,94234.72
2023-05-16T05:29:50.640Z,94228.28
2023-05-16T05:32:17.465Z,94242.78
2023-05-16T05:34:44.318Z,94239.09
2023-05-16T05:37:11.239Z,94232.75
2023-05-16T05:39:38.126Z,94226.31
2023-05-16T05:42:05.071Z,94235.19
2023-05-16T05:44:31.906Z,94233.28
2023-05-16T05:46:59.134Z,94237.13
2023-05-16T05:49:27.327Z,94233.50
2023-05-16T05:51:54.677Z,94240.41
2023-05-16T05:54:21.866Z,94248.47
2023-05-16T05:56:48.763Z,94255.94
2023-05-16T05:59:15.884Z,94259.63
2023-05-16T06:01:44.629Z,94256.00
2023-05-16T06:04:11.802Z,94253.56
2023-05-16T06:06:40.279Z,94254.84
2023-05-16T06:09:07.437Z,94244.03
2023-05-16T06:11:34.403Z,94248.72
2023-05-16T06:14:01.268Z,94258.53
2023-05-16T06:16:28.332Z,94256.19
2023-05-16T06:18:55.224Z,94258.19
2023-05-16T06:21:22.154Z,94261.50
2023-05-16T06:23:49.030Z,94259.97
2023-05-16T06:26:16.044Z,94251.88
2023-05-16T06:28:42.933Z,94257.22
2023-05-16T06:31:10.560Z,94253.84
2023-05-16T06:33:37.419Z,94249.56
2023-05-16T06:36:04.897Z,94243.13
2023-05-16T06:38:31.745Z,94252.19
2023-05-16T06:40:58.580Z,94252.38
2023-05-16T06:43:25.693Z,94249.44
2023-05-16T06:45:52.599Z,94245.38
2023-05-16T06:48:19.893Z,94253.91
2023-05-16T06:50:52.103Z,94255.28
2023-05-16T06:53:19.516Z,94252.84
2023-05-16T06:55:47.332Z,94244.75
2023-05-16T06:58:14.303Z,94241.09
2023-05-16T07:00:41.956Z,94236.13
2023-05-16T07:03:08.999Z,94254.88
2023-05-16T07:05:35.976Z,94252.88
2023-05-16T07:08:04.151Z,94258.56
2023-05-16T07:10:31.953Z,94254.75
2023-05-16T07:12:58.873Z,94260.91
2023-05-16T07:15:26.053Z,94264.50
2023-05-16T07:17:53.043Z,94264.00
2023-05-16T07:20:20.052Z,94256.84
2023-05-16T07:22:46.917Z,94266.06
2023-05-16T07:25:15.232Z,94277.63
2023-05-16T07:27:44.902Z,94268.22
2023-05-16T07:30:13.624Z,94285.91
2023-05-16T07:32:41.892Z,94281.78
2023-05-16T07:35:09.830Z,94281.84
2023-05-16T07:37:36.966Z,94281.03
2023-05-16T07:40:04.224Z,94281.56
2023-05-16T07:42:31.998Z,94290.66
2023-05-16T07:44:58.865Z,94281.16
2023-05-16T07:47:26.080Z,94288.31
2023-05-16T07:49:53.071Z,94293.94
2023-05-16T07:52:20.438Z,94289.41
2023-05-16T07:54:47.902Z,94290.78
2023-05-16T07:57:15.973Z,94288.59
2023-05-16T07:59:44.016Z,94300.22
2023-05-16T08:02:11.743Z,94291.94
2023-05-16T08:04:38.898Z,94293.59
2023-05-16T08:07:06.258Z,94295.31
2023-05-16T08:09:33.539Z,94302.66
2023-05-16T08:12:04.130Z,94297.88
2023-05-16T08:14:33.113Z,94303.19
2023-05-16T08:17:00.714Z,94302.13
2023-05-16T08:19:27.911Z,94306.94
2023-05-16T08:21:55.265Z,94304.38
2023-05-16T08:24:22.223Z,94312.56
2023-05-16T08:26:49.161Z,94310.75
2023-05-16T08:29:16.142Z,94310.13
2023-05-16T08:31:43.293Z,94309.84
2023-05-16T08:34:10.677Z,94316.00
2023-05-16T08:36:38.340Z,94319.44
2023-05-16T08:39:05.550Z,94309.00
2023-05-16T08:41:32.520Z,94311.00
2023-05-16T08:43:59.622Z,94311.09
2023-05-16T08:46:29.992Z,94313.88
2023-05-16T08:49:01.003Z,94322.81
2023-05-16T08:51:34.717Z,94313.00
2023-05-16T08:54:07.227Z,94311.53
2023-05-16T08:56:35.388Z,94314.56
2023-05-16T08:59:03.465Z,94326.19
2023-05-16T09:01:32.690Z,94319.28
2023-05-16T09:04:01.356Z,94326.03
2023-05-16T09:06:28.464Z,94319.38
2023-05-16T09:08:55.709Z,94331.19
2023-05-16T09:11:23.130Z,94335.69
2023-05-16T09:13:50.164Z,94332.06
2023-05-16T09:16:20.091Z,94328.78
2023-05-16T09:18:58.734Z,94338.75
2023-05-16T09:21:36.120Z,94336.19
2023-05-16T09:24:08.328Z,94337.38
2023-05-16T09:26:38.317Z,94342.19
2023-05-16T09:29:12.913Z,94337.38
2023-05-16T09:31:40.665Z,94332.59
2023-05-16T09:34:14.172Z,94342.09
2023-05-16T09:36:44.034Z,94336.53
2023-05-16T09:39:12.424Z,94339.75
2023-05-16T09:41:39.668Z,94327.31
2023-05-16T09:44:07.268Z,94342.28
2023-05-16T09:46:38.612Z,94344.47
2023-05-16T09:49:05.655Z,94342.66
2023-05-16T09:51:33.142Z,94336.75
2023-05-16T09:54:00.829Z,94339.38
2023-05-16T09:56:27.796Z,94344.09
2023-05-16T09:58:54.666Z,94321.84
2023-05-16T10:01:21.646Z,94330.94
2023-05-16T10:03:48.679Z,94323.47
2023-05-16T10:06:16.822Z,94332.53
2023-05-16T10:08:44.081Z,94328.56
2023-05-16T10:11:11.864Z,94323.13
2023-05-16T10:13:39.670Z,94326.94
2023-05-16T10:16:12.056Z,94324.22
2023-05-16T10:18:40.713Z,94329.03
2023-05-16T10:21:15.648Z,94328.78
2023-05-16T10:23:43.903Z,94327.09
2023-05-16T10:26:14.346Z,94328.69
2023-05-16T10:28:41.794Z,94332.19
2023-05-16T10:31:10.387Z,94320.75
2023-05-16T10:33:37.427Z,94336.81
2023-05-16T10:36:05.761Z,94337.00
2023-05-16T10:38:33.832Z,94345.06
2023-05-16T10:41:01.012Z,94348.28
2023-05-16T10:43:31.105Z,94334.63
2023-05-16T10:46:05.395Z,94336.44
2023-05-16T10:48:39.116Z,94342.16
2023-05-16T10:51:36.902Z,94349.16
2023-05-16T10:54:10.860Z,94343.16
2023-05-16T10:56:37.979Z,94339.16
2023-05-16T10:59:05.217Z,94339.47
2023-05-16T11:01:35.864Z,94343.16
2023-05-16T11:04:07.330Z,94336.34
2023-05-16T11:06:35.382Z,94334.59
2023-05-16T11:09:11.147Z,94332.88
2023-05-16T11:11:55.685Z,94329.50
2023-05-16T11:14:33.053Z,94330.44
2023-05-16T11:17:12.773Z,94326.38
2023-05-16T11:19:46.396Z,94326.13
2023-05-16T11:22:21.066Z,94326.63
2023-05-16T11:25:10.829Z,94326.34
2023-05-16T11:27:48.166Z,94333.28
2023-05-16T11:30:22.098Z,94326.97
2023-05-16T11:32:50.977Z,94327.22
2023-05-16T11:35:18.784Z,94332.78
2023-05-16T11:37:47.257Z,94328.84
2023-05-16T11:40:15.000Z,94322.28
2023-05-16T11:42:44.287Z,94331.78
2023-05-16T11:45:21.696Z,94321.38
2023-05-16T11:47:49.828Z,94333.03
2023-05-16T11:50:19.800Z,94345.72
2023-05-16T11:52:54.081Z,94336.06
2023-05-16T11:55:40.161Z,94327.34
2023-05-16T11:58:08.579Z,94341.88
2023-05-16T12:00:36.592Z,94338.94
2023-05-16T12:03:06.077Z,94331.97
2023-05-16T12:05:35.133Z,94336.88
2023-05-16T12:08:05.138Z,94334.13
2023-05-16T12:10:34.991Z,94335.44
2023-05-16T12:13:03.635Z,94334.97
2023-05-16T12:15:31.229Z,94336.81
2023-05-16T12:17:58.507Z,94337.44
2023-05-16T12:20:26.885Z,94342.53
2023-05-16T12:22:53.988Z,94347.03
2023-05-16T12:25:33.103Z,94342.59
2023-05-16T12:28:03.227Z,94349.97
2023-05-16T12:30:32.808Z,94350.19
2023-05-16T12:33:10.042Z,94349.13
2023-05-16T12:35:40.326Z,94350.94
2023-05-16T12:38:13.223Z,94343.25
2023-05-16T12:40:42.593Z,94344.50
2023-05-16T12:43:23.326Z,94352.03
2023-05-16T12:45:53.074Z,94356.09
2023-05-16T12:48:20.311Z,94343.88
2023-05-16T12:50:47.546Z,94344.28
2023-05-16T12:53:16.262Z,94349.13
2023-05-16T12:55:44.478Z,94355.59
2023-05-16T12:58:12.173Z,94368.19
2023-05-16T13:00:39.484Z,94370.00
2023-05-16T13:03:07.800Z,94352.50
2023-05-16T13:05:36.563Z,94359.44
2023-05-16T13:08:04.382Z,94368.94
2023-05-16T13:10:31.342Z,94367.63
2023-05-16T13:13:00.854Z,94366.06
2023-05-16T13:15:28.450Z,94364.47
2023-05-16T13:17:55.850Z,94376.44
2023-05-16T13:20:22.975Z,94373.84
2023-05-16T13:22:49.891Z,94372.22
2023-05-16T13:25:16.810Z,94371.41
2023-05-16T13:27:44.192Z,94368.13
2023-05-16T13:30:11.909Z,94363.59
2023-05-16T13:32:38.877Z,94372.97
2023-05-16T13:35:06.357Z,94381.78
2023-05-16T13:37:33.407Z,94374.63
2023-05-16T13:40:00.423Z,94376.50
2023-05-16T13:42:27.610Z,94391.19
2023-05-16T13:44:54.517Z,94397.00
2023-05-16T13:47:21.574Z,94405.63
2023-05-16T13:49:48.720Z,94407.59
2023-05-16T13:52:15.667Z,94407.31
2023-05-16T13:54:42.645Z,94415.59
2023-05-16T13:57:09.719Z,94408.25
2023-05-16T14:02:07.272Z,94417.06
2023-05-16T14:04:34.200Z,94421.34
2023-05-16T14:07:01.239Z,94412.53
2023-05-16T14:09:28.151Z,94416.78
2023-05-16T14:11:55.000Z,94419.03
2023-05-16T14:14:21.842Z,94420.59
2023-05-16T14:16:48.839Z,94412.38
2023-05-16T14:19:19.186Z,94424.75
2023-05-16T14:21:46.656Z,94406.38
2023-05-16T14:24:13.516Z,94421.41
2023-05-16T14:26:41.483Z,94406.13
2023-05-16T14:29:08.439Z,94418.47
2023-05-16T14:31:36.691Z,94425.66
2023-05-16T14:34:04.380Z,94411.13
2023-05-16T14:36:32.059Z,94419.03
2023-05-16T14:38:59.112Z,94424.94
2023-05-16T14:41:26.822Z,94420.84
2023-05-16T14:43:53.682Z,94425.09
2023-05-16T14:46:20.755Z,94430.38
2023-05-16T14:48:47.690Z,94426.16
2023-05-16T14:51:15.451Z,94426.03
2023-05-16T14:53:43.330Z,94424.28
2023-05-16T14:56:11.059Z,94419.31
2023-05-16T14:58:37.918Z,94415.94
2023-05-16T15:01:05.875Z,94411.03
2023-05-16T15:03:43.261Z,94416.41
2023-05-16T15:06:17.935Z,94419.44
2023-05-16T15:08:44.811Z,94418.97
2023-05-16T15:11:12.016Z,94421.06
2023-05-16T15:13:39.340Z,94446.44
2023-05-16T15:16:06.517Z,94439.13
2023-05-16T15:18:33.982Z,94452.72
2023-05-16T15:21:00.964Z,94443.56
2023-05-16T15:23:27.822Z,94450.34
2023-05-16T15:25:55.002Z,94467.69
2023-05-16T15:28:22.768Z,94469.69
2023-05-16T15:30:51.487Z,94465.13
2023-05-16T15:33:18.447Z,94467.97
2023-05-16T15:35:45.619Z,94461.75
2023-05-16T15:38:12.515Z,94467.66
2023-05-16T15:40:39.706Z,94462.50
2023-05-16T15:43:06.709Z,94471.16
2023-05-16T15:45:37.319Z,94456.13
2023-05-16T15:48:08.251Z,94457.47
2023-05-16T15:50:35.124Z,94461.53
2023-05-16T15:53:02.518Z,94450.28
2023-05-16T15:55:33.109Z,94461.59
2023-05-16T15:58:00.419Z,94459.16
2023-05-16T16:00:27.587Z,94460.59
2023-05-16T16:02:54.888Z,94457.09
2023-05-16T16:05:23.145Z,94455.19
2023-05-16T16:07:52.907Z,94471.09
2023-05-16T16:10:21.896Z,94459.16
2023-05-16T16:13:03.774Z,94473.31
2023-05-16T16:15:34.234Z,94472.00
2023-05-16T16:18:02.253Z,94466.53
2023-05-16T16:20:29.311Z,94472.66
2023-05-16T16:22:56.251Z,94473.66
2023-05-16T16:25:23.180Z,94480.19
2023-05-16T16:27:50.312Z,94489.06
2023-05-16T16:30:17.614Z,94486.88
2023-05-16T16:32:44.615Z,94487.94
2023-05-16T16:35:11.912Z,94479.16
2023-05-16T16:37:39.071Z,94488.38
2023-05-16T16:40:09.381Z,94490.72
2023-05-16T16:42:38.312Z,94493.19
2023-05-16T16:45:06.579Z,94502.84
2023-05-16T16:47:33.781Z,94490.56
2023-05-16T16:50:01.525Z,94510.25
2023-05-16T16:52:29.273Z,94507.44
2023-05-16T16:54:56.252Z,94512.44
2023-05-16T16:57:23.140Z,94510.09
2023-05-16T16:59:50.137Z,94510.78
2023-05-16T17:02:17.068Z,94508.84
2023-05-16T17:04:43.980Z,94501.31
2023-05-16T17:07:10.843Z,94511.13
2023-05-16T17:09:42.282Z,94503.28
2023-05-16T17:12:18.888Z,94506.91
2023-05-16T17:14:48.108Z,94512.16
2023-05-16T17:17:16.856Z,94515.94
2023-05-16T17:19:47.063Z,94510.69
2023-05-16T17:22:14.837Z,94520.06
2023-05-16T17:24:41.740Z,94518.72
2023-05-16T17:27:08.959Z,94523.34
2023-05-16T17:29:35.945Z,94519.72
2023-05-16T17:32:02.847Z,94519.22
2023-05-16T17:34:29.804Z,94517.25
2023-05-16T17:36:56.678Z,94530.03
2023-05-16T17:39:23.632Z,94515.78
2023-05-16T17:41:50.559Z,94513.31
2023-05-16T17:44:17.604Z,94522.56
2023-05-16T17:46:44.566Z,94531.09
2023-05-16T17:49:11.830Z,94528.97
2023-05-16T17:51:48.182Z,94534.16
2023-05-16T17:54:17.111Z,94535.19
2023-05-16T17:56:47.425Z,94535.81
2023-05-16T17:59:15.331Z,94539.41
2023-05-16T18:01:43.632Z,94549.94
2023-05-16T18:04:10.915Z,94548.63
2023-05-16T18:06:38.954Z,94541.41
2023-05-16T18:09:09.778Z,94563.09
2023-05-16T18:11:40.589Z,94552.59
2023-05-16T18:14:13.042Z,94552.59
2023-05-16T18:16:40.254Z,94562.78
2023-05-16T18:19:08.938Z,94559.97
2023-05-16T18:21:36.784Z,94564.75
2023-05-16T18:24:04.035Z,94562.78
2023-05-16T18:26:31.514Z,94569.84
2023-05-16T18:28:58.450Z,94567.38
2023-05-16T18:31:25.624Z,94561.47
2023-05-16T18:33:52.537Z,94586.09
2023-05-16T18:36:19.405Z,94583.47
2023-05-16T18:38:46.453Z,94585.09
2023-05-16T18:41:13.494Z,94580.50
2023-05-16T18:43:40.499Z,94590.19
2023-05-16T18:46:07.393Z,94585.09
2023-05-16T18:48:36.027Z,94597.88
2023-05-16T18:51:04.843Z,94590.03
2023-05-16T18:53:42.235Z,94602.19
2023-05-16T18:56:10.306Z,94607.09
2023-05-16T18:58:45.451Z,94604.31
2023-05-16T19:01:13.635Z,94608.75
2023-05-16T19:03:44.284Z,94613.66
2023-05-16T19:06:12.589Z,94609.72
2023-05-16T19:08:47.667Z,94604.31
2023-05-16T19:11:16.348Z,94599.88
2023-05-16T19:13:43.652Z,94603.19
2023-05-16T19:16:11.260Z,94611.88
2023-05-16T19:18:38.494Z,94614.69
2023-05-16T19:21:07.816Z,94609.75
2023-05-16T19:23:34.728Z,94623.88
2023-05-16T19:26:01.733Z,94630.09
2023-05-16T19:28:28.712Z,94635.00
2023-05-16T19:30:55.607Z,94628.13
2023-05-16T19:33:22.566Z,94627.13
2023-05-16T19:35:51.644Z,94629.09
2023-05-16T19:38:20.040Z,94633.69
2023-05-16T19:40:49.880Z,94637.97
2023-05-16T19:43:21.644Z,94652.75
2023-05-16T19:45:48.842Z,94658.19
2023-05-16T19:48:25.367Z,94641.25
2023-05-16T19:51:07.605Z,94646.84
2023-05-16T19:53:37.010Z,94647.47
2023-05-16T19:56:05.977Z,94660.59
2023-05-16T19:58:45.577Z,94667.47
2023-05-16T20:01:12.450Z,94657.63
2023-05-16T20:03:39.430Z,94668.31
2023-05-16T20:06:06.775Z,94661.75
2023-05-16T20:08:33.649Z,94674.69
2023-05-16T20:11:00.545Z,94682.06
2023-05-16T20:13:27.477Z,94674.00
2023-05-16T20:15:54.400Z,94682.00
2023-05-16T20:18:21.315Z,94675.78
2023-05-16T20:20:48.262Z,94684.97
2023-05-16T20:23:15.123Z,94677.22
2023-05-16T20:25:41.982Z,94688.38
2023-05-16T20:28:08.893Z,94688.50
2023-05-16T20:30:35.898Z,94682.41
2023-05-16T20:33:02.831Z,94688.63
2023-05-16T20:35:29.871Z,94697.16
2023-05-16T20:37:56.814Z,94702.22
2023-05-16T20:40:23.683Z,94705.00
2023-05-16T20:42:50.576Z,94702.22
2023-05-16T20:45:17.487Z,94700.06
2023-05-16T20:47:44.440Z,94700.06
2023-05-16T20:50:11.489Z,94695.75
2023-05-16T20:52:38.372Z,94706.53
2023-05-16T20:55:05.938Z,94703.06
2023-05-16T20:57:32.807Z,94710.13
2023-05-16T20:59:59.708Z,94707.78
2023-05-16T21:02:26.570Z,94714.03
2023-05-16T21:04:53.496Z,94708.88
2023-05-16T21:07:20.455Z,94721.66
2023-05-16T21:09:48.497Z,94724.44
2023-05-16T21:12:15.370Z,94722.06
2023-05-16T21:14:44.272Z,94723.16
2023-05-16T21:17:11.276Z,94729.41
2023-05-16T21:19:38.960Z,94738.06
2023-05-16T21:22:06.143Z,94730.16
2023-05-16T21:24:37.578Z,94728.53
2023-05-16T21:27:05.337Z,94750.50
2023-05-16T21:29:32.210Z,94748.34
2023-05-16T21:31:59.264Z,94745.19
2023-05-16T21:34:26.267Z,94752.25
2023-05-16T21:36:54.038Z,94749.56
2023-05-16T21:39:21.007Z,94740.78
2023-05-16T21:41:47.934Z,94753.22
2023-05-16T21:44:17.387Z,94756.84
2023-05-16T21:46:47.108Z,94758.53
2023-05-16T21:49:14.355Z,94768.50
2023-05-16T21:51:41.317Z,94758.31
2023-05-16T21:54:08.261Z,94753.09
2023-05-16T21:56:35.164Z,94760.41
2023-05-16T21:59:02.093Z,94775.97
2023-05-16T22:01:29.602Z,94772.16
2023-05-16T22:03:57.872Z,94765.44
2023-05-16T22:06:25.634Z,94764.44
2023-05-16T22:08:53.459Z,94766.03
2023-05-16T22:11:20.484Z,94766.84
2023-05-16T22:13:47.408Z,94754.34
2023-05-16T22:16:14.344Z,94758.91
2023-05-16T22:18:41.562Z,94755.53
2023-05-16T22:21:08.520Z,94755.13
2023-05-16T22:23:35.627Z,94758.88
2023-05-16T22:26:02.572Z,94741.41
2023-05-16T22:28:29.502Z,94759.19
2023-05-16T22:30:56.403Z,94760.47
2023-05-16T22:33:23.759Z,94757.63
2023-05-16T22:35:50.993Z,94772.44
2023-05-16T22:38:17.920Z,94770.84
2023-05-16T22:40:44.893Z,94778.53
2023-05-16T22:43:11.931Z,94770.84
2023-05-16T22:45:38.855Z,94781.97
2023-05-16T22:48:06.450Z,94778.44
2023-05-16T22:50:33.590Z,94770.63
2023-05-16T22:53:00.633Z,94769.81
2023-05-16T22:55:27.778Z,94783.28
2023-05-16T22:57:57.347Z,94783.03
2023-05-16T23:00:24.737Z,94796.25
2023-05-16T23:02:51.977Z,94788.28
2023-05-16T23:05:19.017Z,94783.91
2023-05-16T23:07:45.916Z,94800.72
2023-05-16T23:10:14.392Z,94795.38
2023-05-16T23:12:44.273Z,94809.56
2023-05-16T23:15:11.735Z,94807.34
2023-05-16T23:17:39.318Z,94825.91
2023-05-16T23:20:07.337Z,94816.28
2023-05-16T23:22:34.288Z,94817.53
2023-05-16T23:25:01.227Z,94830.75
2023-05-16T23:27:28.181Z,94824.97
2023-05-16T23:29:55.096Z,94824.97
2023-05-16T23:32:22.030Z,94817.69
2023-05-16T23:34:48.958Z,94818.38
2023-05-16T23:37:16.196Z,94826.38
2023-05-16T23:39:43.313Z,94836.41
2023-05-16T23:42:10.214Z,94827.44
2023-05-16T23:44:37.126Z,94834.34
2023-05-16T23:47:04.233Z,94813.19
2023-05-16T23:49:31.125Z,94820.59
2023-05-16T23:51:58.428Z,94828.31
2023-05-16T23:54:28.200Z,94822.53
2023-05-16T23:56:56.197Z,94831.72
2023-05-16T23:59:23.122Z,94842.72
